Lackey, Mississippi
Current Conditions -  °F | °C
As of 4:55 AM on Wednesday 22 Oct 2014 (Local Time) from KM40 Reporting Station
Haze Haze  
Wind Chill: 48°   Ceiling: Unl
Heat Index: 48°   Visibility: 5mi
Dew Point: 36°   Wind: 3mph
Humidity: 62%   Direction: 20°NNE
Pressure: 30.14"   Gusts: NA
Location:  33.8251°N, 88.6185°W
Report Text: KM40 220955Z AUTO 02003KT 5SM HZ CLR 09/02 A3014 RMK AO2
Loading
Personal Weather Stations






























Interactive Weather Map
Tropical Storm Tracking
New forecast layout! Learn more

10-Day Weather Forecast

Advertisements
Track Severe Weather on mobile